createdAt,value
2016-12-03T00:00:33.973Z,0
2016-12-03T00:01:33.995Z,0
2016-12-03T00:02:48.927Z,0
2016-12-03T00:03:34.016Z,0
2016-12-03T00:04:48.955Z,0
2016-12-03T00:05:34.044Z,0
2016-12-03T00:06:34.066Z,0
2016-12-03T00:07:19.166Z,0
2016-12-03T00:08:19.171Z,0
2016-12-03T00:09:19.183Z,0
2016-12-03T00:10:19.200Z,0
2016-12-03T00:11:19.221Z,0
2016-12-03T00:12:19.234Z,0
2016-12-03T00:13:34.165Z,0
2016-12-03T00:14:19.561Z,0
2016-12-03T00:15:19.275Z,0
2016-12-03T00:16:19.293Z,0
2016-12-03T00:17:34.229Z,0
2016-12-03T00:18:19.330Z,0
2016-12-03T00:19:34.260Z,0
2016-12-03T00:20:19.359Z,0
2016-12-03T00:21:19.402Z,0
2016-12-03T00:22:19.385Z,0
2016-12-03T00:23:19.397Z,0
2016-12-03T00:24:19.418Z,0
2016-12-03T00:25:19.475Z,0
2016-12-03T00:26:19.445Z,0
2016-12-03T00:28:19.474Z,0
2016-12-03T00:29:19.492Z,0
2016-12-03T00:30:19.501Z,0
2016-12-03T00:31:34.440Z,0
2016-12-03T00:32:19.534Z,0
2016-12-03T00:33:34.471Z,0
2016-12-03T00:34:34.484Z,0
2016-12-03T00:35:34.529Z,0
2016-12-03T00:36:19.594Z,0
2016-12-03T00:37:19.610Z,0
2016-12-03T00:38:19.622Z,0
2016-12-03T00:39:19.649Z,0
2016-12-03T00:41:19.667Z,0
2016-12-03T00:42:19.689Z,0
2016-12-03T00:43:19.695Z,0
2016-12-03T00:44:34.643Z,0
2016-12-03T00:45:19.732Z,0
2016-12-03T00:46:19.750Z,0
2016-12-03T00:47:19.768Z,0
2016-12-03T00:48:19.773Z,0
2016-12-03T00:49:34.706Z,0
2016-12-03T00:50:19.811Z,0
2016-12-03T00:51:34.739Z,0
2016-12-03T00:53:19.848Z,0
2016-12-03T00:54:19.874Z,0
2016-12-03T00:55:34.810Z,0
2016-12-03T00:56:19.893Z,0
2016-12-03T00:57:19.911Z,0
2016-12-03T00:58:34.849Z,0
2016-12-03T00:59:19.946Z,0
2016-12-03T01:00:19.953Z,0
2016-12-03T01:01:19.977Z,0
2016-12-03T01:02:34.903Z,0
2016-12-03T01:03:19.998Z,0
2016-12-03T01:04:20.021Z,0
2016-12-03T01:05:34.952Z,0
2016-12-03T01:06:34.994Z,0
2016-12-03T01:07:34.984Z,0
2016-12-03T01:09:35.019Z,0
2016-12-03T01:10:20.108Z,0
2016-12-03T01:11:20.126Z,0
2016-12-03T01:12:20.138Z,0
2016-12-03T01:13:20.155Z,0
2016-12-03T01:14:20.172Z,0
2016-12-03T01:15:20.188Z,0
2016-12-03T01:16:20.196Z,0
2016-12-03T01:17:20.264Z,0
2016-12-03T01:18:20.225Z,0
2016-12-03T01:19:35.170Z,0
2016-12-03T01:20:20.262Z,0
2016-12-03T01:21:35.197Z,0
2016-12-03T01:22:20.291Z,0
2016-12-03T01:23:20.308Z,0
2016-12-03T01:24:35.245Z,0
2016-12-03T01:25:20.332Z,0
2016-12-03T01:26:20.349Z,0
2016-12-03T01:27:20.366Z,0
2016-12-03T01:28:20.377Z,0
2016-12-03T01:29:20.389Z,0
2016-12-03T01:30:20.414Z,0
2016-12-03T01:31:20.420Z,0
2016-12-03T01:33:20.449Z,0
2016-12-03T01:34:20.463Z,0
2016-12-03T01:35:50.331Z,0
2016-12-03T01:36:35.724Z,0
2016-12-03T01:37:50.358Z,0
2016-12-03T01:38:35.442Z,0
2016-12-03T01:39:20.589Z,0
2016-12-03T01:40:35.478Z,0
2016-12-03T01:41:20.565Z,0
2016-12-03T01:42:20.588Z,0
2016-12-03T01:43:20.604Z,0
2016-12-03T01:45:20.630Z,0
2016-12-03T01:46:20.654Z,0
2016-12-03T01:47:20.661Z,0
2016-12-03T01:48:20.679Z,0
2016-12-03T01:49:20.687Z,0
2016-12-03T01:50:21.012Z,0
2016-12-03T01:52:35.663Z,0
2016-12-03T01:53:20.755Z,0
2016-12-03T01:54:20.773Z,0
2016-12-03T01:55:21.091Z,0
2016-12-03T01:56:35.725Z,0
2016-12-03T01:57:20.812Z,0
2016-12-03T01:58:20.826Z,0
2016-12-03T01:59:20.840Z,0
2016-12-03T02:00:20.853Z,0
2016-12-03T02:01:20.885Z,0
2016-12-03T02:02:20.917Z,0
2016-12-03T02:03:20.908Z,0
2016-12-03T02:04:20.917Z,0
2016-12-03T02:05:35.851Z,0
2016-12-03T02:06:20.951Z,0
2016-12-03T02:08:20.976Z,0
2016-12-03T02:09:50.837Z,0
2016-12-03T02:10:35.934Z,0
2016-12-03T02:11:21.024Z,0
2016-12-03T02:12:21.038Z,0
2016-12-03T02:13:21.048Z,0
2016-12-03T02:14:21.062Z,0
2016-12-03T02:15:21.077Z,0
2016-12-03T02:16:21.097Z,0
2016-12-03T02:17:21.112Z,0
2016-12-03T02:18:21.125Z,0
2016-12-03T02:19:21.144Z,0
2016-12-03T02:20:21.154Z,0
2016-12-03T02:21:21.166Z,0
2016-12-03T02:22:51.033Z,0
2016-12-03T02:23:21.198Z,0
2016-12-03T02:24:36.139Z,0
2016-12-03T02:25:21.229Z,0
2016-12-03T02:26:21.243Z,0
2016-12-03T02:27:21.261Z,0
2016-12-03T02:28:21.273Z,0
2016-12-03T02:29:21.331Z,0
2016-12-03T02:30:21.305Z,0
2016-12-03T02:31:21.318Z,0
2016-12-03T02:32:21.332Z,0
2016-12-03T02:33:36.271Z,0
2016-12-03T02:34:21.361Z,0
2016-12-03T02:35:36.307Z,0
2016-12-03T02:37:21.404Z,0
2016-12-03T02:38:21.431Z,0
2016-12-03T02:39:36.356Z,0
2016-12-03T02:40:51.297Z,0
2016-12-03T02:41:36.390Z,0
2016-12-03T02:42:21.512Z,0
2016-12-03T02:43:21.495Z,0
2016-12-03T02:45:21.527Z,0
2016-12-03T02:47:21.552Z,0
2016-12-03T02:48:21.575Z,0
2016-12-03T02:49:21.576Z,0
2016-12-03T02:50:21.631Z,0
2016-12-03T02:51:36.531Z,0
2016-12-03T02:52:21.636Z,0
2016-12-03T02:53:21.946Z,0
2016-12-03T02:56:36.605Z,0
2016-12-03T02:57:21.698Z,0
2016-12-03T02:58:21.716Z,0
2016-12-03T03:00:36.671Z,0
2016-12-03T03:01:21.759Z,0
2016-12-03T03:02:21.774Z,0
2016-12-03T03:03:21.783Z,0
2016-12-03T03:04:21.797Z,0
2016-12-03T03:05:22.114Z,0
2016-12-03T03:06:36.751Z,0
2016-12-03T03:07:21.852Z,0
2016-12-03T03:08:21.858Z,0
2016-12-03T03:09:36.803Z,0
2016-12-03T03:10:37.127Z,0
2016-12-03T03:11:21.905Z,0
2016-12-03T03:12:36.838Z,0
2016-12-03T03:13:21.930Z,0
2016-12-03T03:14:21.953Z,0
2016-12-03T03:15:21.958Z,0
2016-12-03T03:16:36.905Z,0
2016-12-03T03:17:21.996Z,0
2016-12-03T03:18:22.002Z,0
2016-12-03T03:19:22.323Z,0
2016-12-03T03:21:22.047Z,0
2016-12-03T03:22:22.057Z,0
2016-12-03T03:23:22.073Z,0
2016-12-03T03:24:22.097Z,0
2016-12-03T03:25:22.139Z,0
2016-12-03T03:27:37.058Z,0
2016-12-03T03:28:22.156Z,0
2016-12-03T03:29:22.169Z,0
2016-12-03T03:30:37.114Z,0
2016-12-03T03:31:22.199Z,0
2016-12-03T03:33:22.221Z,0
2016-12-03T03:34:22.239Z,0
2016-12-03T03:35:22.261Z,0
2016-12-03T03:36:37.191Z,0
2016-12-03T03:37:22.279Z,0
2016-12-03T03:38:22.301Z,0
2016-12-03T03:39:22.310Z,0
2016-12-03T03:40:22.324Z,0
2016-12-03T03:41:22.333Z,0
2016-12-03T03:42:22.352Z,0
2016-12-03T03:43:22.373Z,0
2016-12-03T03:44:22.390Z,0
2016-12-03T03:45:22.443Z,0
2016-12-03T03:46:22.416Z,0
2016-12-03T03:47:22.727Z,0
2016-12-03T03:48:22.437Z,0
2016-12-03T03:49:22.454Z,0
2016-12-03T03:50:22.467Z,0
2016-12-03T03:51:22.484Z,0
2016-12-03T03:52:22.497Z,0
2016-12-03T03:53:22.518Z,0
2016-12-03T03:54:22.532Z,0
2016-12-03T03:55:22.541Z,0
2016-12-03T03:56:37.481Z,0
2016-12-03T03:57:22.565Z,0
2016-12-03T03:58:22.585Z,0
2016-12-03T03:59:37.521Z,0
2016-12-03T04:00:22.617Z,0
2016-12-03T04:01:22.684Z,0
2016-12-03T04:02:22.634Z,0
2016-12-03T04:03:37.570Z,0
2016-12-03T04:04:22.666Z,0
2016-12-03T04:05:37.609Z,0
2016-12-03T04:06:22.693Z,0
2016-12-03T04:07:22.712Z,0
2016-12-03T04:08:22.720Z,0
2016-12-03T04:09:22.734Z,0
2016-12-03T04:10:22.758Z,0
2016-12-03T04:11:37.695Z,0
2016-12-03T04:12:37.702Z,0
2016-12-03T04:13:22.801Z,0
2016-12-03T04:14:22.817Z,0
2016-12-03T04:15:37.743Z,0
2016-12-03T04:16:22.849Z,0
2016-12-03T04:17:37.778Z,0
2016-12-03T04:18:22.862Z,0
2016-12-03T04:19:37.802Z,0
2016-12-03T04:20:22.911Z,0
2016-12-03T04:21:22.911Z,0
2016-12-03T04:22:22.929Z,0
2016-12-03T04:23:22.938Z,0
2016-12-03T04:25:22.993Z,0
2016-12-03T04:26:22.972Z,0
2016-12-03T04:28:23.005Z,0
2016-12-03T04:29:23.333Z,0
2016-12-03T04:30:23.038Z,0
2016-12-03T04:31:37.973Z,0
2016-12-03T04:32:37.980Z,0
2016-12-03T04:33:23.083Z,0
2016-12-03T04:34:23.125Z,0
2016-12-03T04:35:23.137Z,0
2016-12-03T04:36:23.123Z,0
2016-12-03T04:37:23.137Z,0
2016-12-03T04:38:23.151Z,0
2016-12-03T04:39:38.084Z,0
2016-12-03T04:40:23.175Z,0
2016-12-03T04:41:38.117Z,0
2016-12-03T04:42:23.207Z,0
2016-12-03T04:43:23.218Z,0
2016-12-03T04:44:23.234Z,0
2016-12-03T04:45:38.162Z,0
2016-12-03T04:46:38.183Z,0
2016-12-03T04:47:38.498Z,0
2016-12-03T04:48:23.319Z,0
2016-12-03T04:49:23.307Z,0
2016-12-03T04:50:53.159Z,0
2016-12-03T04:51:23.335Z,0
2016-12-03T04:52:23.348Z,0
2016-12-03T04:53:23.359Z,0
2016-12-03T04:54:23.373Z,0
2016-12-03T04:55:23.382Z,0
2016-12-03T04:56:23.401Z,0
2016-12-03T04:57:23.410Z,0
2016-12-03T04:58:23.453Z,0
2016-12-03T04:59:38.361Z,0
2016-12-03T05:00:23.461Z,0
2016-12-03T05:01:38.395Z,0
2016-12-03T05:02:38.405Z,0
2016-12-03T05:03:23.492Z,0
2016-12-03T05:04:23.507Z,0
2016-12-03T05:05:23.532Z,0
2016-12-03T05:06:23.533Z,0
2016-12-03T05:07:23.556Z,0
2016-12-03T05:08:23.580Z,0
2016-12-03T05:09:23.626Z,0
2016-12-03T05:10:23.613Z,0
2016-12-03T05:11:23.606Z,0
2016-12-03T05:12:38.549Z,0
2016-12-03T05:13:38.559Z,0
2016-12-03T05:15:23.658Z,0
2016-12-03T05:16:23.683Z,0
2016-12-03T05:17:38.624Z,0
2016-12-03T05:19:38.663Z,0
2016-12-03T05:20:23.730Z,0
2016-12-03T05:21:23.750Z,0
2016-12-03T05:22:23.767Z,0
2016-12-03T05:23:38.704Z,0
2016-12-03T05:24:23.788Z,0
2016-12-03T05:25:23.809Z,0
2016-12-03T05:26:23.821Z,0
2016-12-03T05:27:23.836Z,0
2016-12-03T05:28:23.852Z,0
2016-12-03T05:29:23.914Z,0
2016-12-03T05:30:23.873Z,0
2016-12-03T05:31:23.888Z,0
2016-12-03T05:32:38.833Z,0
2016-12-03T05:33:23.945Z,0
2016-12-03T05:34:38.850Z,0
2016-12-03T05:35:23.948Z,0
2016-12-03T05:36:38.883Z,0
2016-12-03T05:37:23.975Z,0
2016-12-03T05:38:24.018Z,0
2016-12-03T05:39:23.999Z,0
2016-12-03T05:40:38.941Z,0
2016-12-03T05:41:38.953Z,0
2016-12-03T05:42:38.968Z,0
2016-12-03T05:43:24.055Z,0
2016-12-03T05:44:24.074Z,0
2016-12-03T05:45:24.091Z,0
2016-12-03T05:46:24.145Z,0
2016-12-03T05:48:24.119Z,0
2016-12-03T05:49:39.066Z,0
2016-12-03T05:50:39.078Z,0
2016-12-03T05:51:24.166Z,0
2016-12-03T05:52:54.027Z,0
2016-12-03T05:53:39.141Z,0
2016-12-03T05:54:24.211Z,0
2016-12-03T05:55:24.228Z,0
2016-12-03T05:56:24.243Z,0
2016-12-03T05:57:24.552Z,0
2016-12-03T05:58:24.268Z,0
2016-12-03T05:59:24.271Z,0
2016-12-03T06:00:24.292Z,0
2016-12-03T06:01:24.380Z,0
2016-12-03T06:02:24.635Z,0
2016-12-03T06:03:24.638Z,0
2016-12-03T06:04:39.270Z,0
2016-12-03T06:05:24.359Z,0
2016-12-03T06:06:39.318Z,0
2016-12-03T06:07:24.393Z,0
2016-12-03T06:08:24.410Z,0
2016-12-03T06:09:24.417Z,0
2016-12-03T06:10:24.734Z,0
2016-12-03T06:11:24.447Z,0
2016-12-03T06:12:24.461Z,0
2016-12-03T06:13:24.474Z,0
2016-12-03T06:14:24.506Z,0
2016-12-03T06:15:24.503Z,0
2016-12-03T06:16:24.518Z,0
2016-12-03T06:17:24.575Z,0
2016-12-03T06:18:24.554Z,0
2016-12-03T06:19:24.851Z,0
2016-12-03T06:20:24.576Z,0
2016-12-03T06:21:24.592Z,0
2016-12-03T06:22:39.520Z,0
2016-12-03T06:23:39.530Z,0
2016-12-03T06:24:24.625Z,0
2016-12-03T06:25:24.675Z,0
2016-12-03T06:26:24.665Z,0
2016-12-03T06:28:24.687Z,0
2016-12-03T06:29:39.618Z,0
2016-12-03T06:30:24.714Z,0
2016-12-03T06:31:24.723Z,0
2016-12-03T06:32:24.735Z,0
2016-12-03T06:33:24.756Z,0
2016-12-03T06:34:24.756Z,0
2016-12-03T06:35:24.776Z,0
2016-12-03T06:36:24.802Z,0
2016-12-03T06:37:39.731Z,0
2016-12-03T06:38:24.824Z,0
2016-12-03T06:39:24.834Z,0
2016-12-03T06:40:24.858Z,0
2016-12-03T06:41:24.860Z,0
2016-12-03T06:42:24.882Z,0
2016-12-03T06:43:39.816Z,0
2016-12-03T06:44:39.829Z,0
2016-12-03T06:45:24.952Z,0
2016-12-03T06:46:25.234Z,0
2016-12-03T06:47:24.940Z,0
2016-12-03T06:50:24.987Z,5
2016-12-03T06:51:54.850Z,5
2016-12-03T06:52:39.934Z,5
2016-12-03T06:53:25.036Z,5
2016-12-03T06:55:25.064Z,5
2016-12-03T06:56:25.105Z,5
2016-12-03T06:57:25.094Z,5
2016-12-03T06:58:25.100Z,5
2016-12-03T06:59:25.422Z,10
2016-12-03T07:00:25.124Z,10
2016-12-03T07:01:25.156Z,10
2016-12-03T07:02:25.172Z,10
2016-12-03T07:03:25.169Z,10
2016-12-03T07:04:25.208Z,10
2016-12-03T07:05:25.194Z,10
2016-12-03T07:06:25.222Z,15
2016-12-03T07:07:25.221Z,15
2016-12-03T07:08:55.083Z,15
2016-12-03T07:09:55.098Z,15
2016-12-03T07:11:25.276Z,15
2016-12-03T07:12:55.154Z,20
2016-12-03T07:13:40.239Z,20
2016-12-03T07:14:25.322Z,20
2016-12-03T07:15:25.351Z,20
2016-12-03T07:17:25.358Z,20
2016-12-03T07:18:25.378Z,20
2016-12-03T07:19:40.310Z,20
2016-12-03T07:20:55.255Z,25
2016-12-03T07:21:25.459Z,25
2016-12-03T07:23:25.753Z,25
2016-12-03T07:24:25.461Z,25
2016-12-03T07:25:40.405Z,25
2016-12-03T07:27:25.500Z,30
2016-12-03T07:28:25.519Z,30
2016-12-03T07:29:25.543Z,30
2016-12-03T07:30:25.540Z,30
2016-12-03T07:31:25.558Z,30
2016-12-03T07:32:25.581Z,30
2016-12-03T07:34:25.606Z,35
2016-12-03T07:35:25.647Z,35
2016-12-03T07:37:25.644Z,40
2016-12-03T07:38:25.665Z,40
2016-12-03T07:39:40.605Z,40
2016-12-03T07:40:25.691Z,40
2016-12-03T07:41:40.622Z,45
2016-12-03T07:42:40.639Z,45
2016-12-03T07:43:25.718Z,45
2016-12-03T07:44:25.742Z,45
2016-12-03T07:45:25.757Z,45
2016-12-03T07:46:25.773Z,50
2016-12-03T07:47:40.758Z,50
2016-12-03T07:48:25.795Z,50
2016-12-03T07:49:25.810Z,50
2016-12-03T07:50:25.832Z,50
2016-12-03T07:51:25.837Z,50
2016-12-03T07:52:25.846Z,50
2016-12-03T07:53:25.874Z,50
2016-12-03T07:54:40.810Z,50
2016-12-03T07:56:25.915Z,50
2016-12-03T07:57:40.847Z,50
2016-12-03T07:58:25.945Z,50
2016-12-03T07:59:25.959Z,50
2016-12-03T08:00:25.969Z,50
2016-12-03T08:01:25.990Z,50
2016-12-03T08:02:26.003Z,55
2016-12-03T08:03:26.019Z,50
2016-12-03T08:04:26.024Z,55
2016-12-03T08:05:26.039Z,55
2016-12-03T08:06:26.053Z,55
2016-12-03T08:07:26.066Z,55
2016-12-03T08:08:26.094Z,55
2016-12-03T08:09:41.021Z,55
2016-12-03T08:10:41.033Z,55
2016-12-03T08:11:26.426Z,55
2016-12-03T08:12:41.060Z,55
2016-12-03T08:13:26.163Z,60
2016-12-03T08:14:26.194Z,60
2016-12-03T08:15:26.188Z,60
2016-12-03T08:16:26.195Z,60
2016-12-03T08:18:26.227Z,60
2016-12-03T08:19:26.240Z,60
2016-12-03T08:20:41.177Z,60
2016-12-03T08:21:41.192Z,60
2016-12-03T08:22:26.307Z,60
2016-12-03T08:23:26.303Z,60
2016-12-03T08:24:41.288Z,60
2016-12-03T08:25:26.330Z,60
2016-12-03T08:26:41.572Z,60
2016-12-03T08:27:26.356Z,60
2016-12-03T08:29:26.377Z,70
2016-12-03T08:30:41.320Z,65
2016-12-03T08:31:26.446Z,65
2016-12-03T08:32:41.355Z,70
2016-12-03T08:33:26.440Z,70
2016-12-03T08:34:26.450Z,75
2016-12-03T08:35:26.476Z,80
2016-12-03T08:36:26.489Z,80
2016-12-03T08:37:26.503Z,85
2016-12-03T08:38:26.516Z,85
2016-12-03T08:39:26.531Z,85
2016-12-03T08:40:26.552Z,85
2016-12-03T08:41:41.484Z,90
2016-12-03T08:42:26.877Z,90
2016-12-03T08:43:26.594Z,85
2016-12-03T08:44:41.526Z,85
2016-12-03T08:45:41.537Z,85
2016-12-03T08:46:26.635Z,80
2016-12-03T08:48:26.665Z,90
2016-12-03T08:49:26.685Z,90
2016-12-03T08:50:26.995Z,90
2016-12-03T08:51:27.058Z,90
2016-12-03T08:52:26.729Z,90
2016-12-03T08:53:26.770Z,90
2016-12-03T08:54:26.741Z,90
2016-12-03T08:55:26.798Z,90
2016-12-03T08:56:26.779Z,85
2016-12-03T08:58:27.145Z,85
2016-12-03T08:59:26.824Z,90
2016-12-03T09:00:41.767Z,90
2016-12-03T09:01:26.864Z,90
2016-12-03T09:02:26.880Z,90
2016-12-03T09:03:26.886Z,90
2016-12-03T09:04:26.901Z,90
2016-12-03T09:06:26.937Z,85
2016-12-03T09:07:26.937Z,90
2016-12-03T09:08:26.966Z,85
2016-12-03T09:09:26.979Z,90
2016-12-03T09:10:26.992Z,90
2016-12-03T09:11:27.001Z,85
2016-12-03T09:12:27.020Z,85
2016-12-03T09:13:41.962Z,85
2016-12-03T09:14:27.049Z,85
2016-12-03T09:15:27.075Z,85
2016-12-03T09:16:42.003Z,85
2016-12-03T09:17:42.018Z,90
2016-12-03T09:19:27.133Z,85
2016-12-03T09:20:27.141Z,90
2016-12-03T09:21:27.164Z,85
2016-12-03T09:22:27.176Z,90
2016-12-03T09:23:27.184Z,90
2016-12-03T09:24:27.203Z,90
2016-12-03T09:25:27.222Z,90
2016-12-03T09:26:42.156Z,90
2016-12-03T09:27:27.246Z,85
2016-12-03T09:29:27.337Z,85
2016-12-03T09:30:42.233Z,85
2016-12-03T09:31:42.232Z,90
2016-12-03T09:32:42.252Z,85
2016-12-03T09:33:27.347Z,90
2016-12-03T09:34:27.365Z,90
2016-12-03T09:35:27.378Z,90
2016-12-03T09:36:27.393Z,85
2016-12-03T09:37:27.416Z,85
2016-12-03T09:38:27.454Z,85
2016-12-03T09:39:27.449Z,85
2016-12-03T09:40:27.506Z,85
2016-12-03T09:41:27.473Z,80
2016-12-03T09:42:27.490Z,85
2016-12-03T09:43:27.510Z,85
2016-12-03T09:44:42.435Z,85
2016-12-03T09:45:42.456Z,85
2016-12-03T09:46:27.544Z,85
2016-12-03T09:47:42.488Z,90
2016-12-03T09:48:27.576Z,90
2016-12-03T09:49:27.600Z,90
2016-12-03T09:50:27.662Z,85
2016-12-03T09:51:42.555Z,90
2016-12-03T09:52:27.696Z,85
2016-12-03T09:53:42.587Z,90
2016-12-03T09:54:27.678Z,85
2016-12-03T09:55:27.686Z,85
2016-12-03T09:56:27.704Z,85
2016-12-03T09:57:42.649Z,85
2016-12-03T09:58:27.740Z,85
2016-12-03T09:59:42.679Z,85
2016-12-03T10:00:27.769Z,90
2016-12-03T10:01:27.784Z,90
2016-12-03T10:02:27.857Z,90
2016-12-03T10:03:27.820Z,85
2016-12-03T10:04:27.835Z,85
2016-12-03T10:05:43.071Z,85
2016-12-03T10:06:27.872Z,85
2016-12-03T10:07:42.804Z,85
2016-12-03T10:08:27.894Z,85
2016-12-03T10:09:27.910Z,85
2016-12-03T10:10:27.931Z,85
2016-12-03T10:11:27.936Z,85
2016-12-03T10:12:27.962Z,85
2016-12-03T10:13:27.977Z,85
2016-12-03T10:15:28.008Z,80
2016-12-03T10:16:28.024Z,80
2016-12-03T10:18:42.977Z,80
2016-12-03T10:19:43.002Z,80
2016-12-03T10:20:43.005Z,80
2016-12-03T10:22:28.128Z,80
2016-12-03T10:23:28.146Z,85
2016-12-03T10:24:28.161Z,85
2016-12-03T10:25:28.168Z,85
2016-12-03T10:26:28.181Z,85
2016-12-03T10:27:28.207Z,85
2016-12-03T10:28:28.225Z,85
2016-12-03T10:29:28.241Z,85
2016-12-03T10:30:43.171Z,80
2016-12-03T10:31:28.271Z,75
2016-12-03T10:32:28.278Z,80
2016-12-03T10:33:28.300Z,80
2016-12-03T10:35:43.251Z,80
2016-12-03T10:36:43.266Z,80
2016-12-03T10:37:28.653Z,80
2016-12-03T10:38:43.295Z,80
2016-12-03T10:39:28.398Z,85
2016-12-03T10:40:28.405Z,85
2016-12-03T10:41:43.644Z,85
2016-12-03T10:42:28.444Z,85
2016-12-03T10:43:28.450Z,85
2016-12-03T10:44:28.468Z,85
2016-12-03T10:45:28.487Z,85
2016-12-03T10:46:28.499Z,85
2016-12-03T10:47:28.518Z,85
2016-12-03T10:48:43.455Z,85
2016-12-03T10:49:43.469Z,85
2016-12-03T10:50:28.871Z,85
2016-12-03T10:51:43.499Z,85
2016-12-03T10:52:28.597Z,85
2016-12-03T10:53:28.614Z,85
2016-12-03T10:54:28.623Z,85
2016-12-03T10:55:28.651Z,85
2016-12-03T10:56:28.663Z,85
2016-12-03T10:57:28.675Z,90
2016-12-03T10:58:43.615Z,85
2016-12-03T10:59:28.738Z,85
2016-12-03T11:00:28.726Z,90
2016-12-03T11:01:28.740Z,90
2016-12-03T11:02:28.758Z,90
2016-12-03T11:03:28.781Z,90
2016-12-03T11:04:28.789Z,85
2016-12-03T11:05:43.722Z,85
2016-12-03T11:06:43.749Z,90
2016-12-03T11:07:43.761Z,90
2016-12-03T11:08:28.863Z,90
2016-12-03T11:09:28.907Z,95
2016-12-03T11:11:28.904Z,95
2016-12-03T11:12:28.921Z,90
2016-12-03T11:13:28.947Z,90
2016-12-03T11:14:28.940Z,90
2016-12-03T11:15:28.967Z,90
2016-12-03T11:16:28.984Z,90
2016-12-03T11:17:28.994Z,90
2016-12-03T11:18:29.013Z,90
2016-12-03T11:19:29.030Z,90
2016-12-03T11:20:43.965Z,90
2016-12-03T11:21:29.083Z,90
2016-12-03T11:22:44.004Z,90
2016-12-03T11:23:29.097Z,90
2016-12-03T11:24:44.031Z,90
2016-12-03T11:25:44.057Z,90
2016-12-03T11:26:29.146Z,85
2016-12-03T11:27:29.165Z,85
2016-12-03T11:28:29.177Z,90
2016-12-03T11:29:29.195Z,90
2016-12-03T11:31:29.221Z,90
2016-12-03T11:32:44.167Z,85
2016-12-03T11:33:44.181Z,85
2016-12-03T11:34:29.278Z,85
2016-12-03T11:35:29.303Z,85
2016-12-03T11:36:29.311Z,85
2016-12-03T11:37:44.249Z,85
2016-12-03T11:38:29.337Z,85
2016-12-03T11:39:29.361Z,90
2016-12-03T11:40:29.378Z,90
2016-12-03T11:41:29.403Z,90
2016-12-03T11:42:29.410Z,90
2016-12-03T11:43:29.418Z,85
2016-12-03T11:44:29.744Z,85
2016-12-03T11:45:29.460Z,85
2016-12-03T11:46:29.483Z,85
2016-12-03T11:47:29.491Z,85
2016-12-03T11:48:29.507Z,90
2016-12-03T11:49:29.567Z,85
2016-12-03T11:50:29.542Z,85
2016-12-03T11:51:29.560Z,90
2016-12-03T11:52:44.495Z,90
2016-12-03T11:53:29.607Z,90
2016-12-03T11:54:44.528Z,90
2016-12-03T11:55:29.922Z,90
2016-12-03T11:56:29.639Z,85
2016-12-03T11:58:29.678Z,85
2016-12-03T11:59:29.689Z,85
2016-12-03T12:00:29.721Z,85
2016-12-03T12:01:29.727Z,85
2016-12-03T12:03:29.761Z,85
2016-12-03T12:04:29.765Z,85
2016-12-03T12:05:29.848Z,85
2016-12-03T12:06:29.810Z,85
2016-12-03T12:07:29.831Z,85
2016-12-03T12:08:29.835Z,85
2016-12-03T12:09:29.857Z,85
2016-12-03T12:10:44.808Z,85
2016-12-03T12:11:59.739Z,85
2016-12-03T12:12:29.912Z,80
2016-12-03T12:13:29.931Z,85
2016-12-03T12:14:30.256Z,85
2016-12-03T12:15:29.961Z,80
2016-12-03T12:16:29.982Z,80
2016-12-03T12:17:29.988Z,75
2016-12-03T12:18:30.014Z,80
2016-12-03T12:19:30.028Z,80
2016-12-03T12:22:30.073Z,80
2016-12-03T12:23:30.094Z,75
2016-12-03T12:24:30.128Z,75
2016-12-03T12:25:30.128Z,75
2016-12-03T12:26:45.175Z,80
2016-12-03T12:27:30.156Z,80
2016-12-03T12:28:30.182Z,80
2016-12-03T12:29:45.175Z,80
2016-12-03T12:30:30.212Z,80
2016-12-03T12:31:30.235Z,75
2016-12-03T12:33:30.268Z,80
2016-12-03T12:34:45.253Z,80
2016-12-03T12:35:30.295Z,75
2016-12-03T12:36:30.314Z,75
2016-12-03T12:37:45.255Z,75
2016-12-03T12:38:30.359Z,75
2016-12-03T12:39:45.298Z,75
2016-12-03T12:40:30.393Z,75
2016-12-03T12:41:30.399Z,75
2016-12-03T12:42:45.344Z,75
2016-12-03T12:43:30.437Z,75
2016-12-03T12:44:30.457Z,75
2016-12-03T12:45:30.472Z,70
2016-12-03T12:46:30.487Z,70
2016-12-03T12:47:30.497Z,75
2016-12-03T12:48:30.525Z,75
2016-12-03T12:49:30.535Z,75
2016-12-03T12:50:30.561Z,75
2016-12-03T12:51:30.576Z,75
2016-12-03T12:52:30.593Z,70
2016-12-03T12:53:30.606Z,75
2016-12-03T12:54:30.621Z,75
2016-12-03T12:55:30.646Z,75
2016-12-03T12:56:45.579Z,75
2016-12-03T12:57:45.599Z,75
2016-12-03T12:58:45.616Z,65
2016-12-03T12:59:30.704Z,75
2016-12-03T13:00:30.729Z,75
2016-12-03T13:01:30.747Z,65
2016-12-03T13:02:45.684Z,70
2016-12-03T13:03:30.783Z,70
2016-12-03T13:04:30.792Z,60
2016-12-03T13:05:30.805Z,70
2016-12-03T13:06:30.825Z,70
2016-12-03T13:07:30.840Z,65
2016-12-03T13:08:45.786Z,65
2016-12-03T13:09:30.883Z,65
2016-12-03T13:10:30.897Z,60
2016-12-03T13:11:30.913Z,65
2016-12-03T13:12:30.936Z,55
2016-12-03T13:14:30.958Z,60
2016-12-03T13:15:31.028Z,55
2016-12-03T13:16:30.990Z,60
2016-12-03T13:17:31.013Z,60
2016-12-03T13:18:45.954Z,60
2016-12-03T13:19:31.074Z,55
2016-12-03T13:20:31.066Z,60
2016-12-03T13:21:31.082Z,55
2016-12-03T13:22:31.112Z,55
2016-12-03T13:23:31.119Z,50
2016-12-03T13:24:31.129Z,55
2016-12-03T13:25:46.074Z,55
2016-12-03T13:26:46.083Z,55
2016-12-03T13:27:31.185Z,55
2016-12-03T13:28:31.201Z,55
2016-12-03T13:29:46.143Z,50
2016-12-03T13:30:31.232Z,55
2016-12-03T13:31:31.250Z,55
2016-12-03T13:32:31.263Z,50
2016-12-03T13:33:31.331Z,50
2016-12-03T13:34:31.301Z,55
2016-12-03T13:35:46.239Z,45
2016-12-03T13:36:31.326Z,45
2016-12-03T13:37:46.272Z,50
2016-12-03T13:38:31.370Z,45
2016-12-03T13:39:31.382Z,45
2016-12-03T13:40:46.322Z,45
2016-12-03T13:41:46.337Z,50
2016-12-03T13:42:46.353Z,45
2016-12-03T13:43:46.366Z,45
2016-12-03T13:46:01.329Z,40
2016-12-03T13:46:31.503Z,45
2016-12-03T13:47:31.512Z,40
2016-12-03T13:48:31.534Z,40
2016-12-03T13:49:31.646Z,40
2016-12-03T13:50:31.571Z,40
2016-12-03T13:51:46.507Z,35
2016-12-03T13:52:31.605Z,35
2016-12-03T13:53:31.610Z,35
2016-12-03T13:54:46.554Z,35
2016-12-03T13:55:46.570Z,35
2016-12-03T13:56:31.668Z,35
2016-12-03T13:57:46.758Z,35
2016-12-03T13:58:46.679Z,30
2016-12-03T13:59:46.632Z,30
2016-12-03T14:00:46.652Z,30
2016-12-03T14:01:46.665Z,30
2016-12-03T14:02:31.770Z,30
2016-12-03T14:03:46.696Z,30
2016-12-03T14:04:31.800Z,30
2016-12-03T14:05:31.815Z,30
2016-12-03T14:06:32.084Z,30
2016-12-03T14:07:31.849Z,25
2016-12-03T14:08:46.802Z,25
2016-12-03T14:09:46.801Z,25
2016-12-03T14:10:46.826Z,25
2016-12-03T14:11:46.831Z,25
2016-12-03T14:12:31.931Z,25
2016-12-03T14:13:31.939Z,25
2016-12-03T14:14:31.961Z,25
2016-12-03T14:15:32.032Z,25
2016-12-03T14:16:31.989Z,25
2016-12-03T14:17:46.932Z,20
2016-12-03T14:18:32.029Z,20
2016-12-03T14:19:32.056Z,20
2016-12-03T14:20:32.061Z,20
2016-12-03T14:21:47.004Z,20
2016-12-03T14:22:32.095Z,20
2016-12-03T14:23:47.034Z,20
2016-12-03T14:24:47.068Z,20
2016-12-03T14:25:32.194Z,15
2016-12-03T14:26:32.158Z,15
2016-12-03T14:27:32.175Z,15
2016-12-03T14:28:32.195Z,15
2016-12-03T14:29:47.137Z,15
2016-12-03T14:30:47.149Z,15
2016-12-03T14:31:32.245Z,15
2016-12-03T14:32:47.189Z,15
2016-12-03T14:33:47.190Z,10
2016-12-03T14:35:32.311Z,10
2016-12-03T14:36:32.333Z,10
2016-12-03T14:38:32.389Z,10
2016-12-03T14:39:32.381Z,10
2016-12-03T14:40:32.396Z,10
2016-12-03T14:41:32.398Z,10
2016-12-03T14:42:32.424Z,10
2016-12-03T14:43:47.361Z,10
2016-12-03T14:44:32.454Z,5
2016-12-03T14:45:32.475Z,5
2016-12-03T14:46:32.492Z,5
2016-12-03T14:47:32.556Z,5
2016-12-03T14:48:32.525Z,5
2016-12-03T14:49:32.534Z,5
2016-12-03T14:50:32.552Z,5
2016-12-03T14:51:47.491Z,5
2016-12-03T14:52:32.613Z,5
2016-12-03T14:53:32.600Z,5
2016-12-03T14:54:47.838Z,5
2016-12-03T14:55:32.637Z,5
2016-12-03T14:56:32.657Z,0
2016-12-03T14:57:47.590Z,0
2016-12-03T14:58:32.685Z,0
2016-12-03T14:59:47.627Z,0
2016-12-03T15:00:47.644Z,0
2016-12-03T15:01:32.731Z,0
2016-12-03T15:02:47.674Z,0
2016-12-03T15:03:32.767Z,0
2016-12-03T15:04:47.701Z,0
2016-12-03T15:05:32.800Z,0
2016-12-03T15:06:32.818Z,0
2016-12-03T15:07:33.141Z,0
2016-12-03T15:08:32.851Z,0
2016-12-03T15:09:32.865Z,0
2016-12-03T15:10:32.875Z,0
2016-12-03T15:11:32.893Z,0
2016-12-03T15:12:32.918Z,0
2016-12-03T15:13:32.926Z,0
2016-12-03T15:14:32.939Z,0
2016-12-03T15:15:32.956Z,0
2016-12-03T15:16:33.005Z,0
2016-12-03T15:18:33.011Z,0
2016-12-03T15:19:47.972Z,0
2016-12-03T15:20:47.961Z,0
2016-12-03T15:21:33.059Z,0
2016-12-03T15:22:33.074Z,0
2016-12-03T15:23:33.100Z,0
2016-12-03T15:24:33.109Z,0
2016-12-03T15:25:33.423Z,0
2016-12-03T15:26:33.136Z,0
2016-12-03T15:27:33.157Z,0